sensor_id;sensor_type;location;lat;lon;timestamp;pressure;altitude;pressure_sealevel;temperature;humidity
69796;BME280;57073;45.650;9.612;2023-07-22T00:01:36;98826.91;;;22.31;59.45
69796;BME280;57073;45.650;9.612;2023-07-22T00:06:37;98832.38;;;22.31;60.62
69796;BME280;57073;45.650;9.612;2023-07-22T00:11:37;98826.44;;;22.29;60.22
69796;BME280;57073;45.650;9.612;2023-07-22T00:16:38;98814.59;;;22.37;59.95
69796;BME280;57073;45.650;9.612;2023-07-22T00:21:38;98823.78;;;22.41;59.80
69796;BME280;57073;45.650;9.612;2023-07-22T00:26:39;98807.97;;;22.38;61.42
69796;BME280;57073;45.650;9.612;2023-07-22T00:31:39;98794.72;;;22.23;61.35
69796;BME280;57073;45.650;9.612;2023-07-22T00:36:40;98800.53;;;22.39;61.41
69796;BME280;57073;45.650;9.612;2023-07-22T00:41:40;98799.06;;;22.41;61.22
69796;BME280;57073;45.650;9.612;2023-07-22T00:46:44;98798.91;;;22.38;61.20
69796;BME280;57073;45.650;9.612;2023-07-22T00:51:45;98798.28;;;22.32;61.10
69796;BME280;57073;45.650;9.612;2023-07-22T00:56:47;98789.56;;;22.21;61.04
69796;BME280;57073;45.650;9.612;2023-07-22T01:01:47;98795.22;;;22.25;62.49
69796;BME280;57073;45.650;9.612;2023-07-22T01:06:49;98787.13;;;22.20;62.58
69796;BME280;57073;45.650;9.612;2023-07-22T01:11:49;98787.97;;;22.29;62.29
69796;BME280;57073;45.650;9.612;2023-07-22T01:16:50;98791.69;;;22.07;63.08
69796;BME280;57073;45.650;9.612;2023-07-22T01:21:51;98800.22;;;22.14;63.59
69796;BME280;57073;45.650;9.612;2023-07-22T01:26:52;98785.53;;;22.10;63.63
69796;BME280;57073;45.650;9.612;2023-07-22T01:31:54;98788.13;;;22.06;63.49
69796;BME280;57073;45.650;9.612;2023-07-22T01:36:55;98790.41;;;22.13;62.72
69796;BME280;57073;45.650;9.612;2023-07-22T01:41:55;98782.47;;;22.12;63.66
69796;BME280;57073;45.650;9.612;2023-07-22T01:46:56;98786.81;;;22.13;63.75
69796;BME280;57073;45.650;9.612;2023-07-22T01:51:57;98784.59;;;22.06;63.90
69796;BME280;57073;45.650;9.612;2023-07-22T01:56:57;98784.06;;;22.13;61.50
69796;BME280;57073;45.650;9.612;2023-07-22T02:01:58;98791.06;;;22.01;61.39
69796;BME280;57073;45.650;9.612;2023-07-22T02:06:58;98784.13;;;21.95;61.46
69796;BME280;57073;45.650;9.612;2023-07-22T02:11:59;98795.13;;;21.86;61.09
69796;BME280;57073;45.650;9.612;2023-07-22T02:16:59;98793.66;;;21.89;60.79
69796;BME280;57073;45.650;9.612;2023-07-22T02:22:00;98809.81;;;21.64;61.26
69796;BME280;57073;45.650;9.612;2023-07-22T02:27:00;98818.38;;;21.63;59.51
69796;BME280;57073;45.650;9.612;2023-07-22T02:32:01;98825.91;;;21.48;60.17
69796;BME280;57073;45.650;9.612;2023-07-22T02:37:01;98829.09;;;21.42;60.48
69796;BME280;57073;45.650;9.612;2023-07-22T02:42:02;98814.13;;;21.39;59.80
69796;BME280;57073;45.650;9.612;2023-07-22T02:47:03;98822.19;;;21.36;61.31
69796;BME280;57073;45.650;9.612;2023-07-22T02:52:03;98826.03;;;21.35;61.31
69796;BME280;57073;45.650;9.612;2023-07-22T02:57:04;98842.81;;;21.33;61.84
69796;BME280;57073;45.650;9.612;2023-07-22T03:02:05;98841.84;;;21.38;61.17
69796;BME280;57073;45.650;9.612;2023-07-22T03:07:05;98843.31;;;21.35;61.13
69796;BME280;57073;45.650;9.612;2023-07-22T03:12:06;98850.88;;;21.29;59.97
69796;BME280;57073;45.650;9.612;2023-07-22T03:17:07;98842.66;;;21.29;60.72
69796;BME280;57073;45.650;9.612;2023-07-22T03:22:08;98845.88;;;21.32;60.36
69796;BME280;57073;45.650;9.612;2023-07-22T03:27:08;98853.28;;;21.31;60.47
69796;BME280;57073;45.650;9.612;2023-07-22T03:32:09;98849.75;;;21.30;60.26
69796;BME280;57073;45.650;9.612;2023-07-22T03:37:09;98842.31;;;21.22;60.63
69796;BME280;57073;45.650;9.612;2023-07-22T03:42:09;98846.66;;;21.23;59.99
69796;BME280;57073;45.650;9.612;2023-07-22T03:47:10;98855.84;;;21.19;60.35
69796;BME280;57073;45.650;9.612;2023-07-22T03:52:10;98864.25;;;21.31;59.38
69796;BME280;57073;45.650;9.612;2023-07-22T03:57:14;98870.09;;;21.29;60.26
69796;BME280;57073;45.650;9.612;2023-07-22T04:02:15;98873.94;;;21.28;60.11
69796;BME280;57073;45.650;9.612;2023-07-22T04:07:15;98891.22;;;21.38;59.48
69796;BME280;57073;45.650;9.612;2023-07-22T04:12:16;98887.03;;;21.32;60.12
69796;BME280;57073;45.650;9.612;2023-07-22T04:17:17;98886.72;;;21.42;60.22
69796;BME280;57073;45.650;9.612;2023-07-22T04:22:17;98908.34;;;21.52;60.15
69796;BME280;57073;45.650;9.612;2023-07-22T04:27:17;98909.66;;;21.46;60.44
69796;BME280;57073;45.650;9.612;2023-07-22T04:32:18;98918.69;;;21.46;60.18
69796;BME280;57073;45.650;9.612;2023-07-22T04:37:18;98930.81;;;21.54;60.05
69796;BME280;57073;45.650;9.612;2023-07-22T04:42:19;98942.63;;;21.63;59.46
69796;BME280;57073;45.650;9.612;2023-07-22T04:47:19;98936.00;;;21.56;60.55
69796;BME280;57073;45.650;9.612;2023-07-22T04:52:20;98953.94;;;21.71;59.70
69796;BME280;57073;45.650;9.612;2023-07-22T04:57:21;98950.41;;;21.79;59.32
69796;BME280;57073;45.650;9.612;2023-07-22T05:02:21;98969.78;;;21.74;60.43
69796;BME280;57073;45.650;9.612;2023-07-22T05:07:21;98974.47;;;21.73;60.96
69796;BME280;57073;45.650;9.612;2023-07-22T05:12:23;98985.00;;;21.97;60.01
69796;BME280;57073;45.650;9.612;2023-07-22T05:17:23;98981.44;;;21.48;56.20
69796;BME280;57073;45.650;9.612;2023-07-22T05:22:24;98974.34;;;21.96;55.36
69796;BME280;57073;45.650;9.612;2023-07-22T05:27:24;98981.13;;;21.98;56.09
69796;BME280;57073;45.650;9.612;2023-07-22T05:32:25;98982.75;;;22.08;55.12
69796;BME280;57073;45.650;9.612;2023-07-22T05:37:25;98981.31;;;22.02;56.29
69796;BME280;57073;45.650;9.612;2023-07-22T05:42:26;98995.69;;;22.08;55.05
69796;BME280;57073;45.650;9.612;2023-07-22T05:47:26;98988.09;;;22.13;55.80
69796;BME280;57073;45.650;9.612;2023-07-22T05:52:27;98999.28;;;22.25;55.16
69796;BME280;57073;45.650;9.612;2023-07-22T05:57:27;99005.66;;;22.03;56.65
69796;BME280;57073;45.650;9.612;2023-07-22T06:02:28;99010.09;;;22.31;56.80
69796;BME280;57073;45.650;9.612;2023-07-22T06:07:28;99009.56;;;22.20;56.30
69796;BME280;57073;45.650;9.612;2023-07-22T06:12:29;99018.28;;;22.13;54.85
69796;BME280;57073;45.650;9.612;2023-07-22T06:17:29;99027.94;;;21.93;53.26
69796;BME280;57073;45.650;9.612;2023-07-22T06:22:30;99027.13;;;21.84;53.99
69796;BME280;57073;45.650;9.612;2023-07-22T06:27:30;99037.34;;;22.10;53.51
69796;BME280;57073;45.650;9.612;2023-07-22T06:32:30;99028.69;;;22.34;55.06
69796;BME280;57073;45.650;9.612;2023-07-22T06:37:31;99028.50;;;22.65;53.56
69796;BME280;57073;45.650;9.612;2023-07-22T06:42:31;99036.09;;;23.03;51.84
69796;BME280;57073;45.650;9.612;2023-07-22T06:47:32;99037.84;;;23.25;50.52
69796;BME280;57073;45.650;9.612;2023-07-22T06:52:33;99034.69;;;23.62;49.69
69796;BME280;57073;45.650;9.612;2023-07-22T06:57:33;99042.03;;;23.78;50.45
69796;BME280;57073;45.650;9.612;2023-07-22T07:02:34;99048.78;;;23.90;49.46
69796;BME280;57073;45.650;9.612;2023-07-22T07:07:34;99049.88;;;23.68;50.61
69796;BME280;57073;45.650;9.612;2023-07-22T07:12:35;99051.03;;;23.58;51.39
69796;BME280;57073;45.650;9.612;2023-07-22T07:17:35;99041.47;;;23.64;51.30
69796;BME280;57073;45.650;9.612;2023-07-22T07:22:35;99046.03;;;23.90;51.61
69796;BME280;57073;45.650;9.612;2023-07-22T07:27:36;99048.81;;;24.41;50.44
69796;BME280;57073;45.650;9.612;2023-07-22T07:32:36;99046.41;;;25.15;50.68
69796;BME280;57073;45.650;9.612;2023-07-22T07:37:37;99052.97;;;25.68;49.63
69796;BME280;57073;45.650;9.612;2023-07-22T07:42:37;99055.50;;;25.85;46.70
69796;BME280;57073;45.650;9.612;2023-07-22T07:47:38;99061.50;;;26.12;46.69
69796;BME280;57073;45.650;9.612;2023-07-22T07:52:38;99062.19;;;26.34;47.03
69796;BME280;57073;45.650;9.612;2023-07-22T07:57:39;99079.47;;;26.18;46.20
69796;BME280;57073;45.650;9.612;2023-07-22T08:02:39;99069.81;;;26.24;46.55
69796;BME280;57073;45.650;9.612;2023-07-22T08:07:40;99061.13;;;26.38;46.80
69796;BME280;57073;45.650;9.612;2023-07-22T08:12:40;99055.16;;;25.75;46.16
69796;BME280;57073;45.650;9.612;2023-07-22T08:17:40;99060.66;;;25.62;47.16
69796;BME280;57073;45.650;9.612;2023-07-22T08:22:41;99054.13;;;25.55;46.93
69796;BME280;57073;45.650;9.612;2023-07-22T08:27:41;99056.59;;;25.47;46.11
69796;BME280;57073;45.650;9.612;2023-07-22T08:32:41;99056.31;;;25.16;47.31
69796;BME280;57073;45.650;9.612;2023-07-22T08:37:42;99043.69;;;24.94;47.57
69796;BME280;57073;45.650;9.612;2023-07-22T08:42:44;99047.78;;;24.87;47.64
69796;BME280;57073;45.650;9.612;2023-07-22T08:47:46;99056.03;;;24.54;48.62
69796;BME280;57073;45.650;9.612;2023-07-22T08:52:47;99044.38;;;24.69;49.23
69796;BME280;57073;45.650;9.612;2023-07-22T08:57:48;99045.88;;;24.67;49.11
69796;BME280;57073;45.650;9.612;2023-07-22T09:02:50;99037.28;;;24.68;48.89
69796;BME280;57073;45.650;9.612;2023-07-22T09:07:51;99039.97;;;24.56;50.32
69796;BME280;57073;45.650;9.612;2023-07-22T09:12:52;99070.09;;;24.61;50.08
69796;BME280;57073;45.650;9.612;2023-07-22T09:17:52;99078.19;;;24.79;50.42
69796;BME280;57073;45.650;9.612;2023-07-22T09:22:53;99062.41;;;24.46;50.85
69796;BME280;57073;45.650;9.612;2023-07-22T09:27:58;99077.47;;;24.69;50.06
69796;BME280;57073;45.650;9.612;2023-07-22T09:33:01;99083.34;;;25.56;50.18
69796;BME280;57073;45.650;9.612;2023-07-22T09:38:05;99077.31;;;25.41;48.46
69796;BME280;57073;45.650;9.612;2023-07-22T09:43:05;99064.47;;;25.95;46.67
69796;BME280;57073;45.650;9.612;2023-07-22T09:48:08;99060.09;;;26.31;46.56
69796;BME280;57073;45.650;9.612;2023-07-22T09:53:14;99075.91;;;26.83;46.96
69796;BME280;57073;45.650;9.612;2023-07-22T09:58:15;99064.16;;;26.74;45.94
69796;BME280;57073;45.650;9.612;2023-07-22T10:03:16;99069.72;;;26.61;45.41
69796;BME280;57073;45.650;9.612;2023-07-22T10:08:21;99073.69;;;26.11;47.10
69796;BME280;57073;45.650;9.612;2023-07-22T10:13:24;99073.59;;;26.32;46.68
69796;BME280;57073;45.650;9.612;2023-07-22T10:18:25;99069.66;;;26.33;47.23
69796;BME280;57073;45.650;9.612;2023-07-22T10:23:27;99063.50;;;26.77;46.86
69796;BME280;57073;45.650;9.612;2023-07-22T10:28:29;99055.69;;;26.42;46.66
69796;BME280;57073;45.650;9.612;2023-07-22T10:33:29;99056.66;;;25.97;46.73
69796;BME280;57073;45.650;9.612;2023-07-22T10:38:30;99057.72;;;26.70;46.81
69796;BME280;57073;45.650;9.612;2023-07-22T10:43:32;99061.38;;;25.72;45.44
69796;BME280;57073;45.650;9.612;2023-07-22T10:48:38;99049.66;;;25.99;45.42
69796;BME280;57073;45.650;9.612;2023-07-22T10:53:57;99041.41;;;26.52;43.92
69796;BME280;57073;45.650;9.612;2023-07-22T10:58:59;99024.44;;;26.66;44.42
69796;BME280;57073;45.650;9.612;2023-07-22T11:19:30;99024.16;;;27.28;44.11
69796;BME280;57073;45.650;9.612;2023-07-22T11:24:33;99025.91;;;27.04;43.74
69796;BME280;57073;45.650;9.612;2023-07-22T11:29:37;99030.44;;;27.12;43.12
69796;BME280;57073;45.650;9.612;2023-07-22T11:34:39;99027.38;;;26.45;43.96
69796;BME280;57073;45.650;9.612;2023-07-22T11:39:40;99029.50;;;26.23;40.79
69796;BME280;57073;45.650;9.612;2023-07-22T11:44:42;99015.50;;;26.44;43.05
69796;BME280;57073;45.650;9.612;2023-07-22T11:49:47;99015.19;;;26.34;44.64
69796;BME280;57073;45.650;9.612;2023-07-22T11:54:48;99000.09;;;26.72;44.39
69796;BME280;57073;45.650;9.612;2023-07-22T11:59:50;99009.22;;;26.32;44.12
69796;BME280;57073;45.650;9.612;2023-07-22T12:05:00;99000.28;;;26.51;44.35
69796;BME280;57073;45.650;9.612;2023-07-22T12:10:04;98988.75;;;25.96;44.02
69796;BME280;57073;45.650;9.612;2023-07-22T12:15:16;98984.53;;;25.74;43.81
69796;BME280;57073;45.650;9.612;2023-07-22T12:20:17;98995.88;;;26.21;45.17
69796;BME280;57073;45.650;9.612;2023-07-22T12:25:18;98983.88;;;26.58;44.40
69796;BME280;57073;45.650;9.612;2023-07-22T12:30:18;98988.69;;;26.33;44.09
69796;BME280;57073;45.650;9.612;2023-07-22T12:35:19;98982.41;;;25.95;44.76
69796;BME280;57073;45.650;9.612;2023-07-22T12:40:20;98980.81;;;26.06;44.42
69796;BME280;57073;45.650;9.612;2023-07-22T12:45:21;98985.72;;;26.13;46.11
69796;BME280;57073;45.650;9.612;2023-07-22T12:50:22;98981.75;;;25.86;45.27
69796;BME280;57073;45.650;9.612;2023-07-22T12:55:22;98979.97;;;26.06;44.71
69796;BME280;57073;45.650;9.612;2023-07-22T13:00:23;98969.81;;;26.35;44.26
69796;BME280;57073;45.650;9.612;2023-07-22T13:05:23;98962.94;;;26.04;43.81
69796;BME280;57073;45.650;9.612;2023-07-22T13:10:28;98959.56;;;25.70;43.96
69796;BME280;57073;45.650;9.612;2023-07-22T13:15:29;98963.88;;;26.08;44.66
69796;BME280;57073;45.650;9.612;2023-07-22T13:20:29;98969.19;;;26.01;43.73
69796;BME280;57073;45.650;9.612;2023-07-22T13:25:30;98965.28;;;25.90;45.41
69796;BME280;57073;45.650;9.612;2023-07-22T13:30:30;98961.47;;;26.06;45.78
69796;BME280;57073;45.650;9.612;2023-07-22T13:35:31;98948.03;;;26.33;46.09
69796;BME280;57073;45.650;9.612;2023-07-22T13:40:31;98949.59;;;26.18;45.96
69796;BME280;57073;45.650;9.612;2023-07-22T13:45:32;98963.41;;;26.18;46.27
69796;BME280;57073;45.650;9.612;2023-07-22T13:50:32;98965.34;;;26.30;45.88
69796;BME280;57073;45.650;9.612;2023-07-22T13:55:33;98963.63;;;26.54;46.93
69796;BME280;57073;45.650;9.612;2023-07-22T14:00:34;98957.44;;;26.73;46.18
69796;BME280;57073;45.650;9.612;2023-07-22T14:05:35;98953.84;;;26.28;44.64
69796;BME280;57073;45.650;9.612;2023-07-22T14:10:36;98960.56;;;26.43;44.87
69796;BME280;57073;45.650;9.612;2023-07-22T14:15:36;98954.34;;;26.46;45.63
69796;BME280;57073;45.650;9.612;2023-07-22T14:20:37;98956.38;;;26.49;45.47
69796;BME280;57073;45.650;9.612;2023-07-22T14:25:37;98967.09;;;26.10;46.05
69796;BME280;57073;45.650;9.612;2023-07-22T14:30:38;98963.38;;;26.31;44.50
69796;BME280;57073;45.650;9.612;2023-07-22T14:35:38;98965.94;;;25.99;45.48
69796;BME280;57073;45.650;9.612;2023-07-22T14:40:38;98962.78;;;26.37;45.09
69796;BME280;57073;45.650;9.612;2023-07-22T14:45:39;98962.16;;;26.44;45.35
69796;BME280;57073;45.650;9.612;2023-07-22T14:50:39;98965.13;;;26.11;45.99
69796;BME280;57073;45.650;9.612;2023-07-22T14:55:39;98965.38;;;26.05;45.76
69796;BME280;57073;45.650;9.612;2023-07-22T15:00:40;98960.19;;;26.04;46.71
69796;BME280;57073;45.650;9.612;2023-07-22T15:05:41;98951.19;;;26.32;45.69
69796;BME280;57073;45.650;9.612;2023-07-22T15:10:41;98943.66;;;25.92;45.88
69796;BME280;57073;45.650;9.612;2023-07-22T15:15:41;98945.38;;;26.37;45.32
69796;BME280;57073;45.650;9.612;2023-07-22T15:20:42;98954.50;;;26.37;45.51
69796;BME280;57073;45.650;9.612;2023-07-22T15:25:43;98954.66;;;26.16;46.24
69796;BME280;57073;45.650;9.612;2023-07-22T15:30:43;98954.09;;;26.23;46.95
69796;BME280;57073;45.650;9.612;2023-07-22T15:35:44;98951.88;;;26.29;46.63
69796;BME280;57073;45.650;9.612;2023-07-22T15:40:44;98947.78;;;26.38;47.45
69796;BME280;57073;45.650;9.612;2023-07-22T15:45:45;98944.78;;;26.03;46.63
69796;BME280;57073;45.650;9.612;2023-07-22T15:50:45;98944.06;;;26.06;46.35
69796;BME280;57073;45.650;9.612;2023-07-22T15:55:46;98951.22;;;26.07;47.22
69796;BME280;57073;45.650;9.612;2023-07-22T16:00:48;98952.56;;;26.25;47.07
69796;BME280;57073;45.650;9.612;2023-07-22T16:05:48;98949.56;;;26.59;46.76
69796;BME280;57073;45.650;9.612;2023-07-22T16:10:48;98950.56;;;26.67;46.23
69796;BME280;57073;45.650;9.612;2023-07-22T16:15:49;98946.59;;;25.99;47.46
69796;BME280;57073;45.650;9.612;2023-07-22T16:20:49;98950.00;;;25.67;48.39
69796;BME280;57073;45.650;9.612;2023-07-22T16:25:50;98944.28;;;26.25;46.65
69796;BME280;57073;45.650;9.612;2023-07-22T16:30:50;98941.81;;;26.36;45.95
69796;BME280;57073;45.650;9.612;2023-07-22T16:35:51;98945.34;;;26.21;47.00
69796;BME280;57073;45.650;9.612;2023-07-22T16:40:51;98949.66;;;26.34;46.68
69796;BME280;57073;45.650;9.612;2023-07-22T16:45:51;98947.06;;;26.54;45.94
69796;BME280;57073;45.650;9.612;2023-07-22T16:50:52;98939.00;;;26.49;45.92
69796;BME280;57073;45.650;9.612;2023-07-22T16:55:52;98944.03;;;26.31;45.74
69796;BME280;57073;45.650;9.612;2023-07-22T17:00:54;98943.72;;;26.20;46.34
69796;BME280;57073;45.650;9.612;2023-07-22T17:05:54;98937.16;;;26.24;46.45
69796;BME280;57073;45.650;9.612;2023-07-22T17:10:55;98944.22;;;26.38;46.22
69796;BME280;57073;45.650;9.612;2023-07-22T17:15:55;98939.09;;;26.24;45.63
69796;BME280;57073;45.650;9.612;2023-07-22T17:20:55;98950.41;;;26.06;47.33
69796;BME280;57073;45.650;9.612;2023-07-22T17:25:56;98948.22;;;26.12;46.67
69796;BME280;57073;45.650;9.612;2023-07-22T17:31:00;98952.72;;;26.04;46.44
69796;BME280;57073;45.650;9.612;2023-07-22T17:36:00;98945.94;;;25.90;47.24
69796;BME280;57073;45.650;9.612;2023-07-22T17:41:01;98951.75;;;25.72;48.06
69796;BME280;57073;45.650;9.612;2023-07-22T17:46:02;98945.72;;;25.82;47.80
69796;BME280;57073;45.650;9.612;2023-07-22T17:51:02;98957.94;;;25.81;47.92
69796;BME280;57073;45.650;9.612;2023-07-22T17:56:03;98960.91;;;25.89;47.81
69796;BME280;57073;45.650;9.612;2023-07-22T18:01:03;98951.84;;;25.76;48.56
69796;BME280;57073;45.650;9.612;2023-07-22T18:06:04;98953.72;;;25.59;48.51
69796;BME280;57073;45.650;9.612;2023-07-22T18:11:04;98962.78;;;25.84;48.03
69796;BME280;57073;45.650;9.612;2023-07-22T18:16:04;98953.44;;;25.89;47.90
69796;BME280;57073;45.650;9.612;2023-07-22T18:21:05;98954.50;;;25.84;47.87
69796;BME280;57073;45.650;9.612;2023-07-22T18:26:05;98950.31;;;25.91;47.31
69796;BME280;57073;45.650;9.612;2023-07-22T18:31:06;98956.66;;;25.79;47.97
69796;BME280;57073;45.650;9.612;2023-07-22T18:36:07;98961.16;;;25.71;48.02
69796;BME280;57073;45.650;9.612;2023-07-22T18:41:07;98948.72;;;25.53;48.32
69796;BME280;57073;45.650;9.612;2023-07-22T18:46:12;98960.47;;;25.62;47.59
69796;BME280;57073;45.650;9.612;2023-07-22T18:51:14;98965.50;;;25.47;47.70
69796;BME280;57073;45.650;9.612;2023-07-22T18:56:15;98965.28;;;25.53;47.79
69796;BME280;57073;45.650;9.612;2023-07-22T19:01:19;98972.09;;;25.55;47.38
69796;BME280;57073;45.650;9.612;2023-07-22T19:06:19;98977.22;;;25.44;48.42
69796;BME280;57073;45.650;9.612;2023-07-22T19:11:19;98984.22;;;25.17;48.87
69796;BME280;57073;45.650;9.612;2023-07-22T19:16:20;98998.16;;;25.33;48.52
69796;BME280;57073;45.650;9.612;2023-07-22T19:21:20;98990.22;;;25.32;49.31
69796;BME280;57073;45.650;9.612;2023-07-22T19:26:20;99005.84;;;25.15;50.08
69796;BME280;57073;45.650;9.612;2023-07-22T19:31:21;98997.09;;;25.13;50.16
69796;BME280;57073;45.650;9.612;2023-07-22T19:36:21;99003.66;;;25.21;50.02
69796;BME280;57073;45.650;9.612;2023-07-22T19:41:22;99009.25;;;25.00;50.51
69796;BME280;57073;45.650;9.612;2023-07-22T19:46:22;99028.78;;;24.95;51.48
69796;BME280;57073;45.650;9.612;2023-07-22T19:51:23;99018.56;;;25.07;51.15
69796;BME280;57073;45.650;9.612;2023-07-22T19:56:23;99027.06;;;25.02;51.23
69796;BME280;57073;45.650;9.612;2023-07-22T20:01:23;99035.91;;;24.96;51.21
69796;BME280;57073;45.650;9.612;2023-07-22T20:06:24;99039.25;;;25.01;50.89
69796;BME280;57073;45.650;9.612;2023-07-22T20:11:24;99048.22;;;24.98;51.26
69796;BME280;57073;45.650;9.612;2023-07-22T20:16:24;99057.03;;;24.70;52.43
69796;BME280;57073;45.650;9.612;2023-07-22T20:21:25;99057.97;;;25.41;50.94
69796;BME280;57073;45.650;9.612;2023-07-22T20:26:25;99064.28;;;26.24;48.81
69796;BME280;57073;45.650;9.612;2023-07-22T20:31:26;99072.28;;;26.42;48.28
69796;BME280;57073;45.650;9.612;2023-07-22T20:36:26;99056.34;;;26.76;47.99
69796;BME280;57073;45.650;9.612;2023-07-22T20:41:26;99070.91;;;26.48;47.73
69796;BME280;57073;45.650;9.612;2023-07-22T20:46:27;99067.34;;;26.88;46.99
69796;BME280;57073;45.650;9.612;2023-07-22T20:51:27;99071.88;;;27.09;46.40
69796;BME280;57073;45.650;9.612;2023-07-22T20:56:28;99072.16;;;27.19;46.04
69796;BME280;57073;45.650;9.612;2023-07-22T21:01:28;99075.28;;;27.18;45.98
69796;BME280;57073;45.650;9.612;2023-07-22T21:06:28;99084.94;;;27.24;46.26
69796;BME280;57073;45.650;9.612;2023-07-22T21:11:29;99083.31;;;27.23;45.82
69796;BME280;57073;45.650;9.612;2023-07-22T21:16:29;99095.09;;;27.20;46.50
69796;BME280;57073;45.650;9.612;2023-07-22T21:21:30;99104.66;;;26.94;46.54
69796;BME280;57073;45.650;9.612;2023-07-22T21:26:30;99097.03;;;26.51;47.49
69796;BME280;57073;45.650;9.612;2023-07-22T21:31:31;99103.66;;;26.34;47.62
69796;BME280;57073;45.650;9.612;2023-07-22T21:36:31;99101.91;;;26.29;47.64
69796;BME280;57073;45.650;9.612;2023-07-22T21:41:32;99103.75;;;26.37;47.58
69796;BME280;57073;45.650;9.612;2023-07-22T21:46:32;99098.66;;;26.02;48.23
69796;BME280;57073;45.650;9.612;2023-07-22T21:51:33;99109.53;;;26.20;47.79
69796;BME280;57073;45.650;9.612;2023-07-22T21:56:33;99115.28;;;26.27;47.57
69796;BME280;57073;45.650;9.612;2023-07-22T22:01:34;99126.31;;;26.15;47.24
69796;BME280;57073;45.650;9.612;2023-07-22T22:06:35;99125.19;;;26.16;47.79
69796;BME280;57073;45.650;9.612;2023-07-22T22:11:36;99127.91;;;26.03;47.94
69796;BME280;57073;45.650;9.612;2023-07-22T22:16:36;99130.97;;;25.65;48.40
69796;BME280;57073;45.650;9.612;2023-07-22T22:21:37;99133.09;;;25.47;49.64
69796;BME280;57073;45.650;9.612;2023-07-22T22:26:37;99144.69;;;25.40;49.84
69796;BME280;57073;45.650;9.612;2023-07-22T22:31:37;99156.91;;;24.97;50.36
69796;BME280;57073;45.650;9.612;2023-07-22T22:36:38;99157.16;;;24.32;51.53
69796;BME280;57073;45.650;9.612;2023-07-22T22:41:38;99168.84;;;24.21;51.91
69796;BME280;57073;45.650;9.612;2023-07-22T22:46:38;99167.97;;;23.99;52.56
69796;BME280;57073;45.650;9.612;2023-07-22T22:51:39;99166.22;;;24.24;51.73
69796;BME280;57073;45.650;9.612;2023-07-22T22:56:39;99160.75;;;24.15;52.09
69796;BME280;57073;45.650;9.612;2023-07-22T23:01:39;99162.22;;;24.22;52.13
69796;BME280;57073;45.650;9.612;2023-07-22T23:06:40;99168.31;;;24.36;52.02
69796;BME280;57073;45.650;9.612;2023-07-22T23:11:40;99158.09;;;24.37;51.60
69796;BME280;57073;45.650;9.612;2023-07-22T23:16:41;99159.78;;;24.20;52.31
69796;BME280;57073;45.650;9.612;2023-07-22T23:21:41;99150.69;;;24.28;52.78
69796;BME280;57073;45.650;9.612;2023-07-22T23:26:41;99149.00;;;23.97;53.05
69796;BME280;57073;45.650;9.612;2023-07-22T23:31:42;99145.75;;;24.04;53.07
69796;BME280;57073;45.650;9.612;2023-07-22T23:36:42;99150.31;;;24.00;52.81
69796;BME280;57073;45.650;9.612;2023-07-22T23:41:42;99145.84;;;23.78;53.80
69796;BME280;57073;45.650;9.612;2023-07-22T23:46:43;99153.25;;;23.95;52.92
69796;BME280;57073;45.650;9.612;2023-07-22T23:51:43;99155.03;;;24.00;53.15
69796;BME280;57073;45.650;9.612;2023-07-22T23:56:43;99156.03;;;23.86;53.88
